createdAt,value
2019-03-01T00:02:13.971Z,69.31
2019-03-01T00:05:31.714Z,69.29
2019-03-01T00:08:10.502Z,69.49
2019-03-01T00:10:52.807Z,69.07
2019-03-01T00:14:06.869Z,69.07
2019-03-01T00:17:09.457Z,69.31
2019-03-01T00:19:56.758Z,69.33
2019-03-01T00:22:52.422Z,69.24
2019-03-01T00:26:08.677Z,69.65
2019-03-01T00:29:11.758Z,69.25
2019-03-01T00:32:25.979Z,69.54
2019-03-01T00:35:30.232Z,69.28
2019-03-01T00:38:38.779Z,69.34
2019-03-01T00:41:17.771Z,69.88
2019-03-01T00:44:18.173Z,69.64
2019-03-01T00:46:46.166Z,71.53
2019-03-01T00:49:14.074Z,71.29
2019-03-01T00:51:42.007Z,72.25
2019-03-01T00:54:10.066Z,72.63
2019-03-01T00:56:37.913Z,73.82
2019-03-01T00:59:06.472Z,74.29
2019-03-01T01:01:34.507Z,74.37
2019-03-01T01:04:02.385Z,73.05
2019-03-01T01:06:30.913Z,73.07
2019-03-01T01:08:58.757Z,74.58
2019-03-01T01:11:26.563Z,73.27
2019-03-01T01:13:55.010Z,72.67
2019-03-01T01:16:22.918Z,74.98
2019-03-01T01:18:50.805Z,75.52
2019-03-01T01:21:18.704Z,74.02
2019-03-01T01:23:46.652Z,72.98
2019-03-01T01:26:14.692Z,73.49
2019-03-01T01:28:42.626Z,72.62
2019-03-01T01:31:10.563Z,74.79
2019-03-01T01:33:38.354Z,73.03
2019-03-01T01:36:06.365Z,72.58
2019-03-01T01:38:34.423Z,72.29
2019-03-01T01:41:02.330Z,72.00
2019-03-01T01:43:30.893Z,71.78
2019-03-01T01:45:58.927Z,71.58
2019-03-01T01:48:26.809Z,72.14
2019-03-01T01:50:54.995Z,71.59
2019-03-01T01:53:22.872Z,71.39
2019-03-01T01:55:50.781Z,71.38
2019-03-01T01:58:18.667Z,71.24
2019-03-01T02:00:46.678Z,71.30
2019-03-01T02:03:14.651Z,71.48
2019-03-01T02:05:43.013Z,71.38
2019-03-01T02:08:10.954Z,71.42
2019-03-01T02:10:39.155Z,71.35
2019-03-01T02:13:06.994Z,71.64
2019-03-01T02:15:34.887Z,71.55
2019-03-01T02:18:03.222Z,71.32
2019-03-01T02:20:31.208Z,71.37
2019-03-01T02:22:59.257Z,71.35
2019-03-01T02:25:27.646Z,71.36
2019-03-01T02:27:55.555Z,71.41
2019-03-01T02:30:24.972Z,71.45
2019-03-01T02:32:52.865Z,71.26
2019-03-01T02:35:22.713Z,71.18
2019-03-01T02:37:50.752Z,71.12
2019-03-01T02:40:18.806Z,71.14
2019-03-01T02:42:46.863Z,71.06
2019-03-01T02:45:16.543Z,71.07
2019-03-01T02:47:44.487Z,70.99
2019-03-01T02:50:13.308Z,71.01
2019-03-01T02:52:41.304Z,70.88
2019-03-01T02:55:10.995Z,70.79
2019-03-01T02:57:38.917Z,70.71
2019-03-01T03:00:10.225Z,70.85
2019-03-01T03:02:44.181Z,70.78
2019-03-01T03:05:12.167Z,70.98
2019-03-01T03:08:11.631Z,70.97
2019-03-01T03:10:39.486Z,71.08
2019-03-01T03:13:08.996Z,71.14
2019-03-01T03:15:41.953Z,71.17
2019-03-01T03:18:09.873Z,71.15
2019-03-01T03:20:38.247Z,71.02
2019-03-01T03:23:06.395Z,70.96
2019-03-01T03:25:34.255Z,71.09
2019-03-01T03:28:02.174Z,71.27
2019-03-01T03:30:30.151Z,71.17
2019-03-01T03:32:58.168Z,71.21
2019-03-01T03:35:26.352Z,71.18
2019-03-01T03:37:54.276Z,71.20
2019-03-01T03:40:22.231Z,71.15
2019-03-01T03:42:50.230Z,71.14
2019-03-01T03:45:18.247Z,71.18
2019-03-01T03:47:46.298Z,71.05
2019-03-01T03:50:14.370Z,70.77
2019-03-01T03:52:42.352Z,70.83
2019-03-01T03:55:11.557Z,71.11
2019-03-01T03:57:39.556Z,71.17
2019-03-01T04:00:11.627Z,71.21
2019-03-01T04:02:39.649Z,71.27
2019-03-01T04:05:07.651Z,71.55
2019-03-01T04:07:36.084Z,71.49
2019-03-01T04:10:04.724Z,71.17
2019-03-01T04:12:32.652Z,71.04
2019-03-01T04:15:00.485Z,71.71
2019-03-01T04:17:28.568Z,71.20
2019-03-01T04:19:56.400Z,71.50
2019-03-01T04:22:24.157Z,71.65
2019-03-01T04:24:51.973Z,71.71
2019-03-01T04:27:19.725Z,71.65
2019-03-01T04:29:47.730Z,71.88
2019-03-01T04:32:16.288Z,71.55
2019-03-01T04:34:44.101Z,72.25
2019-03-01T04:37:11.878Z,72.79
2019-03-01T04:39:39.675Z,72.81
2019-03-01T04:42:07.444Z,73.52
2019-03-01T04:44:35.289Z,72.39
2019-03-01T04:47:03.260Z,72.44
2019-03-01T04:49:31.218Z,72.23
2019-03-01T04:51:59.160Z,72.28
2019-03-01T04:54:27.090Z,72.17
2019-03-01T04:56:54.857Z,72.21
2019-03-01T04:59:22.757Z,72.02
2019-03-01T05:01:50.524Z,72.07
2019-03-01T05:04:18.357Z,72.22
2019-03-01T05:06:52.564Z,72.26
2019-03-01T05:09:20.401Z,72.48
2019-03-01T05:11:48.180Z,72.23
2019-03-01T05:14:16.081Z,72.51
2019-03-01T05:16:43.983Z,72.21
2019-03-01T05:19:11.796Z,72.02
2019-03-01T05:21:39.585Z,71.98
2019-03-01T05:24:07.431Z,71.92
2019-03-01T05:26:35.221Z,72.12
2019-03-01T05:29:03.938Z,72.23
2019-03-01T05:31:32.293Z,72.15
2019-03-01T05:34:00.120Z,72.31
2019-03-01T05:36:27.906Z,72.35
2019-03-01T05:38:55.821Z,72.31
2019-03-01T05:41:23.708Z,72.38
2019-03-01T05:43:53.433Z,72.32
2019-03-01T05:46:21.272Z,72.30
2019-03-01T05:48:49.182Z,72.35
2019-03-01T05:51:21.058Z,72.64
2019-03-01T05:53:49.402Z,72.50
2019-03-01T05:56:17.196Z,72.33
2019-03-01T05:58:47.594Z,72.72
2019-03-01T06:01:55.194Z,72.83
2019-03-01T06:04:32.872Z,72.47
2019-03-01T06:07:17.467Z,72.75
2019-03-01T06:10:18.924Z,72.67
2019-03-01T06:13:09.520Z,72.65
2019-03-01T06:16:04.625Z,72.62
2019-03-01T06:19:05.701Z,73.00
2019-03-01T06:22:16.738Z,73.01
2019-03-01T06:24:55.683Z,73.06
2019-03-01T06:27:58.632Z,72.92
2019-03-01T06:31:01.890Z,73.71
2019-03-01T06:34:02.001Z,73.97
2019-03-01T06:36:59.163Z,73.41
2019-03-01T06:40:41.430Z,73.36
2019-03-01T06:43:22.454Z,73.40
2019-03-01T06:46:29.759Z,73.54
2019-03-01T06:49:16.974Z,73.37
2019-03-01T06:51:44.816Z,73.09
2019-03-01T06:54:12.847Z,73.37
2019-03-01T06:56:40.688Z,73.20
2019-03-01T06:59:08.453Z,73.11
2019-03-01T07:01:44.098Z,73.12
2019-03-01T07:04:15.742Z,72.99
2019-03-01T07:06:43.682Z,72.92
2019-03-01T07:09:11.685Z,72.97
2019-03-01T07:11:39.644Z,72.56
2019-03-01T07:14:07.428Z,72.94
2019-03-01T07:16:36.073Z,72.74
2019-03-01T07:19:04.067Z,72.67
2019-03-01T07:21:32.011Z,72.29
2019-03-01T07:23:59.804Z,72.13
2019-03-01T07:26:27.621Z,71.92
2019-03-01T07:28:55.660Z,71.82
2019-03-01T07:31:23.613Z,71.99
2019-03-01T07:33:51.431Z,72.25
2019-03-01T07:36:19.287Z,73.81
2019-03-01T07:38:47.203Z,71.89
2019-03-01T07:41:15.760Z,71.36
2019-03-01T07:43:43.607Z,71.21
2019-03-01T07:46:11.490Z,71.36
2019-03-01T07:48:39.336Z,71.56
2019-03-01T07:51:07.238Z,71.20
2019-03-01T07:53:41.748Z,71.33
2019-03-01T07:56:06.888Z,71.31
2019-03-01T07:58:34.727Z,71.03
2019-03-01T08:01:02.816Z,71.10
2019-03-01T08:03:30.718Z,70.98
2019-03-01T08:05:58.600Z,70.88
2019-03-01T08:08:26.461Z,70.87
2019-03-01T08:10:56.567Z,70.84
2019-03-01T08:13:27.022Z,70.80
2019-03-01T08:15:54.973Z,70.74
2019-03-01T08:18:22.945Z,70.95
2019-03-01T08:20:50.744Z,71.00
2019-03-01T08:23:18.800Z,70.82
2019-03-01T08:25:46.582Z,70.75
2019-03-01T08:28:14.522Z,70.76
2019-03-01T08:30:45.760Z,71.48
2019-03-01T08:33:13.243Z,71.51
2019-03-01T08:35:41.024Z,71.16
2019-03-01T08:38:08.969Z,71.77
2019-03-01T08:40:37.325Z,71.06
2019-03-01T08:43:11.750Z,71.16
2019-03-01T08:45:35.219Z,71.49
2019-03-01T08:48:03.197Z,73.55
2019-03-01T08:50:31.163Z,71.22
2019-03-01T08:53:03.257Z,71.03
2019-03-01T08:55:31.842Z,71.02
2019-03-01T08:58:03.430Z,71.06
2019-03-01T09:00:31.003Z,71.13
2019-03-01T09:03:02.608Z,71.27
2019-03-01T09:05:30.509Z,71.46
2019-03-01T09:07:58.543Z,71.19
2019-03-01T09:10:29.193Z,71.23
2019-03-01T09:12:56.120Z,71.28
2019-03-01T09:15:24.089Z,71.76
2019-03-01T09:17:51.910Z,72.19
2019-03-01T09:20:19.660Z,72.16
2019-03-01T09:22:47.896Z,72.16
2019-03-01T09:25:16.558Z,72.18
2019-03-01T09:27:44.403Z,71.97
2019-03-01T09:30:16.033Z,71.65
2019-03-01T09:32:43.979Z,71.71
2019-03-01T09:35:31.379Z,71.85
2019-03-01T09:37:59.604Z,71.67
2019-03-01T09:40:28.873Z,71.74
2019-03-01T09:42:57.394Z,71.69
2019-03-01T09:45:25.335Z,71.84
2019-03-01T09:47:53.299Z,71.64
2019-03-01T09:50:21.343Z,71.60
2019-03-01T09:52:49.141Z,71.77
2019-03-01T09:55:17.255Z,71.97
2019-03-01T09:57:45.219Z,72.13
2019-03-01T10:00:13.914Z,72.34
2019-03-01T10:02:41.805Z,72.15
2019-03-01T10:05:11.316Z,72.23
2019-03-01T10:07:39.203Z,81.71
2019-03-01T10:10:09.341Z,84.85
2019-03-01T10:12:37.106Z,78.88
2019-03-01T10:15:06.255Z,71.69
2019-03-01T10:17:34.846Z,69.35
2019-03-01T10:20:03.375Z,66.61
2019-03-01T10:22:31.312Z,64.33
2019-03-01T10:24:59.248Z,63.42
2019-03-01T10:27:27.037Z,62.55
2019-03-01T10:29:54.930Z,61.86
2019-03-01T10:32:22.748Z,61.25
2019-03-01T10:34:50.583Z,61.16
2019-03-01T10:37:18.434Z,60.82
2019-03-01T10:39:52.800Z,60.05
2019-03-01T10:42:16.046Z,59.20
2019-03-01T10:44:43.995Z,59.19
2019-03-01T10:47:11.853Z,58.73
2019-03-01T10:49:39.784Z,58.41
2019-03-01T10:52:07.652Z,58.42
2019-03-01T10:54:35.536Z,57.40
2019-03-01T10:57:03.488Z,58.50
2019-03-01T10:59:31.337Z,58.25
2019-03-01T11:01:59.186Z,58.25
2019-03-01T11:04:27.132Z,58.04
2019-03-01T11:06:55.898Z,57.03
2019-03-01T11:09:23.719Z,58.15
2019-03-01T11:11:51.664Z,59.01
2019-03-01T11:14:19.608Z,60.45
2019-03-01T11:16:47.467Z,61.87
2019-03-01T11:19:15.283Z,62.89
2019-03-01T11:21:43.953Z,63.85
2019-03-01T11:24:11.750Z,64.79
2019-03-01T11:26:39.610Z,65.46
2019-03-01T11:29:07.474Z,66.76
2019-03-01T11:31:35.672Z,67.44
2019-03-01T11:34:03.665Z,68.13
2019-03-01T11:36:31.464Z,68.60
2019-03-01T11:38:59.239Z,68.53
2019-03-01T11:41:27.168Z,69.22
2019-03-01T11:43:54.924Z,69.67
2019-03-01T11:46:23.001Z,70.16
2019-03-01T11:48:51.445Z,70.40
2019-03-01T11:51:25.439Z,70.48
2019-03-01T11:53:53.268Z,71.14
2019-03-01T11:56:21.157Z,71.41
2019-03-01T11:58:49.013Z,71.40
2019-03-01T12:01:17.590Z,71.15
2019-03-01T12:03:45.603Z,71.35
2019-03-01T12:06:13.514Z,71.40
2019-03-01T12:08:41.391Z,71.87
2019-03-01T12:11:10.190Z,72.15
2019-03-01T12:13:37.986Z,72.10
2019-03-01T12:16:05.913Z,71.89
2019-03-01T12:18:33.783Z,72.45
2019-03-01T12:21:01.592Z,72.88
2019-03-01T12:23:29.348Z,73.04
2019-03-01T12:25:57.212Z,73.11
2019-03-01T12:28:24.992Z,72.98
2019-03-01T12:30:52.941Z,73.63
2019-03-01T12:33:21.792Z,73.91
2019-03-01T12:35:50.497Z,73.72
2019-03-01T12:38:18.288Z,73.77
2019-03-01T12:40:46.299Z,73.84
2019-03-01T12:43:14.291Z,74.20
2019-03-01T12:45:42.703Z,74.11
2019-03-01T12:48:11.373Z,74.29
2019-03-01T12:50:39.190Z,74.66
2019-03-01T12:53:06.984Z,74.83
2019-03-01T12:55:34.964Z,74.73
2019-03-01T12:58:02.853Z,74.85
2019-03-01T13:00:30.937Z,75.02
2019-03-01T13:02:58.783Z,75.25
2019-03-01T13:05:29.118Z,75.29
2019-03-01T13:07:56.397Z,74.92
2019-03-01T13:10:25.824Z,74.91
2019-03-01T13:12:54.651Z,74.96
2019-03-01T13:15:22.853Z,75.01
2019-03-01T13:17:50.889Z,75.10
2019-03-01T13:20:18.737Z,75.04
2019-03-01T13:22:46.746Z,75.09
2019-03-01T13:25:15.745Z,75.18
2019-03-01T13:27:44.286Z,75.45
2019-03-01T13:30:17.018Z,75.83
2019-03-01T13:32:45.106Z,75.56
2019-03-01T13:35:13.479Z,75.87
2019-03-01T13:37:41.541Z,76.21
2019-03-01T13:40:11.780Z,76.84
2019-03-01T13:42:39.727Z,76.74
2019-03-01T13:45:11.858Z,76.78
2019-03-01T13:47:40.667Z,77.08
2019-03-01T13:50:09.908Z,77.70
2019-03-01T13:52:37.862Z,77.53
2019-03-01T13:55:06.140Z,77.62
2019-03-01T13:57:37.331Z,77.61
2019-03-01T14:00:06.111Z,77.88
2019-03-01T14:02:34.028Z,77.86
2019-03-01T14:05:01.901Z,77.93
2019-03-01T14:07:29.866Z,78.22
2019-03-01T14:10:00.880Z,78.39
2019-03-01T14:12:27.360Z,78.42
2019-03-01T14:14:55.166Z,78.50
2019-03-01T14:17:24.600Z,78.33
2019-03-01T14:19:53.234Z,78.41
2019-03-01T14:22:21.178Z,78.24
2019-03-01T14:24:48.961Z,78.38
2019-03-01T14:27:16.913Z,78.35
2019-03-01T14:29:44.706Z,78.42
2019-03-01T14:32:15.301Z,78.44
2019-03-01T14:34:47.720Z,78.63
2019-03-01T14:37:15.106Z,78.81
2019-03-01T14:39:45.391Z,78.70
2019-03-01T14:42:11.840Z,78.75
2019-03-01T14:44:39.633Z,78.57
2019-03-01T14:47:07.683Z,78.73
2019-03-01T14:49:35.564Z,78.92
2019-03-01T14:52:03.599Z,79.04
2019-03-01T14:54:31.481Z,79.15
2019-03-01T14:57:10.688Z,81.48
2019-03-01T15:00:14.183Z,80.99
2019-03-01T15:03:15.919Z,79.99
2019-03-01T15:05:42.026Z,80.43
2019-03-01T15:08:10.126Z,80.74
2019-03-01T15:10:38.015Z,80.04
2019-03-01T15:13:05.944Z,79.89
2019-03-01T15:15:33.937Z,79.95
2019-03-01T15:18:01.977Z,80.00
2019-03-01T15:20:30.643Z,79.88
2019-03-01T15:22:58.486Z,79.90
2019-03-01T15:25:26.386Z,79.92
2019-03-01T15:27:55.510Z,80.26
2019-03-01T15:30:23.387Z,80.17
2019-03-01T15:32:52.574Z,79.90
2019-03-01T15:35:20.575Z,79.95
2019-03-01T15:37:48.519Z,79.87
2019-03-01T15:40:16.590Z,79.93
2019-03-01T15:42:44.375Z,79.79
2019-03-01T15:45:12.616Z,80.06
2019-03-01T15:47:40.439Z,79.83
2019-03-01T15:50:09.044Z,79.89
2019-03-01T15:52:36.916Z,79.86
2019-03-01T15:55:07.726Z,79.99
2019-03-01T15:57:35.664Z,79.99
2019-03-01T16:00:04.424Z,79.93
2019-03-01T16:02:32.272Z,79.89
2019-03-01T16:05:00.345Z,79.74
2019-03-01T16:07:29.011Z,79.80
2019-03-01T16:10:01.100Z,79.64
2019-03-01T16:12:29.000Z,79.67
2019-03-01T16:15:00.570Z,80.29
2019-03-01T16:17:28.528Z,79.85
2019-03-01T16:19:56.452Z,80.13
2019-03-01T16:22:24.340Z,80.13
2019-03-01T16:24:52.194Z,80.35
2019-03-01T16:27:20.311Z,80.22
2019-03-01T16:29:49.102Z,80.27
2019-03-01T16:32:16.965Z,80.13
2019-03-01T16:34:44.887Z,80.24
2019-03-01T16:37:12.789Z,80.29
2019-03-01T16:39:40.636Z,80.26
2019-03-01T16:42:08.733Z,80.14
2019-03-01T16:44:36.598Z,80.20
2019-03-01T16:47:06.695Z,80.54
2019-03-01T16:49:34.296Z,80.39
2019-03-01T16:52:02.279Z,80.47
2019-03-01T16:54:30.158Z,80.50
2019-03-01T16:56:58.024Z,80.51
2019-03-01T16:59:25.849Z,80.61
2019-03-01T17:01:53.631Z,80.67
2019-03-01T17:04:32.647Z,80.68
2019-03-01T17:07:01.020Z,80.96
2019-03-01T17:09:28.836Z,80.86
2019-03-01T17:11:56.726Z,80.93
2019-03-01T17:14:24.645Z,80.72
2019-03-01T17:16:52.408Z,80.72
2019-03-01T17:19:23.444Z,80.87
2019-03-01T17:21:51.785Z,80.79
2019-03-01T17:24:19.762Z,80.83
2019-03-01T17:26:47.574Z,80.85
2019-03-01T17:29:15.498Z,81.02
2019-03-01T17:31:43.398Z,81.44
2019-03-01T17:34:11.395Z,81.61
2019-03-01T17:36:40.075Z,81.38
2019-03-01T17:39:08.140Z,81.43
2019-03-01T17:41:36.004Z,81.67
2019-03-01T17:44:08.189Z,81.65
2019-03-01T17:46:35.449Z,81.70
2019-03-01T17:49:03.352Z,82.79
2019-03-01T17:51:31.186Z,82.73
2019-03-01T17:53:59.065Z,82.57
2019-03-01T17:56:27.096Z,82.39
2019-03-01T17:58:55.952Z,82.49
2019-03-01T18:01:23.895Z,82.70
2019-03-01T18:03:51.803Z,82.77
2019-03-01T18:06:22.216Z,82.25
2019-03-01T18:08:50.208Z,82.04
2019-03-01T18:11:18.166Z,82.07
2019-03-01T18:13:46.059Z,81.80
2019-03-01T18:16:13.888Z,81.75
2019-03-01T18:18:42.660Z,81.59
2019-03-01T18:21:13.070Z,81.73
2019-03-01T18:23:40.223Z,81.68
2019-03-01T18:26:08.212Z,81.57
2019-03-01T18:28:36.020Z,81.52
2019-03-01T18:31:04.066Z,81.27
2019-03-01T18:33:31.958Z,81.35
2019-03-01T18:35:59.841Z,81.41
2019-03-01T18:38:31.313Z,81.32
2019-03-01T18:40:57.692Z,81.40
2019-03-01T18:43:25.583Z,81.45
2019-03-01T18:45:54.095Z,81.64
2019-03-01T18:48:21.971Z,81.49
2019-03-01T18:50:49.789Z,81.88
2019-03-01T18:53:18.384Z,81.61
2019-03-01T18:55:46.300Z,81.23
2019-03-01T18:58:14.968Z,81.04
2019-03-01T19:00:43.407Z,80.95
2019-03-01T19:03:11.227Z,81.05
2019-03-01T19:05:40.024Z,81.88
2019-03-01T19:08:11.706Z,81.02
2019-03-01T19:10:40.560Z,80.83
2019-03-01T19:13:08.566Z,80.74
2019-03-01T19:15:36.528Z,80.67
2019-03-01T19:18:04.573Z,80.57
2019-03-01T19:20:32.805Z,80.42
2019-03-01T19:23:00.873Z,80.24
2019-03-01T19:25:28.850Z,83.01
2019-03-01T19:27:57.501Z,99.51
2019-03-01T19:30:25.502Z,100.00
2019-03-01T19:32:53.513Z,93.35
2019-03-01T19:35:28.308Z,84.89
2019-03-01T19:37:51.308Z,79.99
2019-03-01T19:40:19.215Z,76.17
2019-03-01T19:42:47.266Z,71.52
2019-03-01T19:45:15.872Z,71.81
2019-03-01T19:47:43.903Z,72.18
2019-03-01T19:50:14.136Z,72.85
2019-03-01T19:52:43.396Z,74.55
2019-03-01T19:55:12.701Z,73.86
2019-03-01T19:57:40.742Z,73.98
2019-03-01T20:00:12.047Z,74.72
2019-03-01T20:02:40.719Z,75.06
2019-03-01T20:05:10.751Z,75.11
2019-03-01T20:07:39.007Z,75.82
2019-03-01T20:10:08.406Z,75.84
2019-03-01T20:12:40.500Z,75.63
2019-03-01T20:15:11.250Z,75.02
2019-03-01T20:17:44.405Z,83.31
2019-03-01T20:20:11.244Z,76.27
2019-03-01T20:22:39.256Z,74.36
2019-03-01T20:25:09.198Z,74.75
2019-03-01T20:27:39.070Z,74.49
2019-03-01T20:30:11.157Z,74.67
2019-03-01T20:32:39.431Z,74.61
2019-03-01T20:35:09.678Z,74.66
2019-03-01T20:37:39.941Z,74.85
2019-03-01T20:40:09.806Z,74.84
2019-03-01T20:42:37.716Z,74.88
2019-03-01T20:45:09.134Z,74.97
2019-03-01T20:47:37.159Z,74.97
2019-03-01T20:50:05.398Z,75.07
2019-03-01T20:52:34.813Z,75.01
2019-03-01T20:55:03.240Z,75.00
2019-03-01T20:57:31.193Z,75.02
2019-03-01T20:59:59.186Z,74.99
2019-03-01T21:02:27.149Z,75.00
2019-03-01T21:04:55.066Z,75.00
2019-03-01T21:07:22.930Z,74.92
2019-03-01T21:09:50.798Z,74.92
2019-03-01T21:12:18.730Z,75.13
2019-03-01T21:14:46.637Z,75.02
2019-03-01T21:17:16.855Z,74.91
2019-03-01T21:19:44.629Z,75.09
2019-03-01T21:22:12.721Z,75.15
2019-03-01T21:24:42.522Z,75.32
2019-03-01T21:27:10.777Z,75.22
2019-03-01T21:29:38.685Z,75.44
2019-03-01T21:32:06.570Z,75.47
2019-03-01T21:34:34.873Z,75.49
2019-03-01T21:37:04.190Z,75.47
2019-03-01T21:39:32.111Z,75.54
2019-03-01T21:41:59.897Z,75.57
2019-03-01T21:44:27.828Z,75.47
2019-03-01T21:46:55.634Z,75.61
2019-03-01T21:49:23.510Z,75.65
2019-03-01T21:51:51.738Z,75.71
2019-03-01T21:54:21.150Z,75.81
2019-03-01T21:56:55.977Z,75.62
2019-03-01T21:59:18.883Z,75.54
2019-03-01T22:01:46.627Z,75.65
2019-03-01T22:04:14.430Z,75.75
2019-03-01T22:06:42.304Z,75.71
2019-03-01T22:09:11.141Z,75.56
2019-03-01T22:11:38.886Z,75.55
2019-03-01T22:14:07.588Z,75.82
2019-03-01T22:16:39.295Z,76.04
2019-03-01T22:19:07.244Z,76.27
2019-03-01T22:21:35.118Z,76.41
2019-03-01T22:24:03.029Z,76.30
2019-03-01T22:26:30.989Z,76.30
2019-03-01T22:28:58.806Z,76.24
2019-03-01T22:31:26.585Z,76.34
2019-03-01T22:33:55.864Z,76.31
2019-03-01T22:36:24.237Z,76.44
2019-03-01T22:38:52.059Z,76.71
2019-03-01T22:41:19.842Z,76.48
2019-03-01T22:43:47.727Z,76.46
2019-03-01T22:46:15.450Z,76.32
2019-03-01T22:48:47.043Z,76.33
2019-03-01T22:51:14.566Z,76.33
2019-03-01T22:53:43.742Z,76.21
2019-03-01T22:56:12.059Z,76.27
2019-03-01T22:58:40.822Z,76.31
2019-03-01T23:01:22.178Z,76.39
2019-03-01T23:03:58.521Z,76.48
2019-03-01T23:06:26.473Z,76.60
2019-03-01T23:08:54.764Z,76.65
2019-03-01T23:11:22.507Z,76.76
2019-03-01T23:13:52.797Z,76.85
2019-03-01T23:16:23.638Z,77.11
2019-03-01T23:18:56.750Z,76.99
2019-03-01T23:21:21.546Z,76.92
2019-03-01T23:23:50.089Z,76.84
2019-03-01T23:26:18.607Z,76.79
2019-03-01T23:28:47.609Z,76.88
2019-03-01T23:31:15.492Z,76.89
2019-03-01T23:33:43.291Z,76.98
2019-03-01T23:36:11.902Z,76.98
2019-03-01T23:38:40.355Z,77.00
2019-03-01T23:41:11.398Z,77.14
2019-03-01T23:43:38.242Z,77.03
2019-03-01T23:46:06.288Z,76.79
2019-03-01T23:48:34.319Z,76.75
2019-03-01T23:51:02.228Z,76.70
2019-03-01T23:53:30.831Z,76.65
2019-03-01T23:55:59.888Z,76.58
2019-03-01T23:58:27.741Z,76.56
